^^
Marion, Virginia Banner
 

Adwolf, VA. Station Historical Data
[ Providing Data Since 6/07/2007 ]
Station Historical Data
 
Daily Summary for September 23, 2017 Units:  Both    English   Metric
« Previous Day
Next Day »
Daily Weekly Monthly Yearly Custom
  Current: High: Low: Average:
Temperature: 81.7 °F /  27.6 °C 83.1 °F /  28.4 °C 60.3 °F /  15.7 °C 66.7 °F /  19.3 °C
Dew Point: 66.4 °F /  19.1 °C 68.0 °F /  20 °C 57.9 °F /  14.4 °C 62 °F /  16.7 °C
Humidity: 60% 92% 58% 86%
Wind Speed: 3.5mph /  5.6km/h 8.1mph /  13km/h - 2.2mph /  3.5km/h
Wind Gust: 3.5mph /  5.6km/h 8.1mph /  13km/h - -
WindEast - - East
Pressure: 30.06 in /  1017.8 hPa 30.08 in /  1018.5 hPa 30.03 in /  1016.8 hPa -
Precipitation: 0.00 in /  0 mm      
Historical Graphs
 
 
Tabular Data for September 23, 2017
Time Temperature Dew Point Pressure Wind Wind Speed Wind Gust Humidity Rainfall Rate (Hourly) solar Conditions
00:04 66.4 °F /  19.1 °C 63.0 °F /  17.2 °C 30.05in /  1017.5hPa East 2.0mph /  3.2km/h 2.0mph /  3.2km/h 89% 0.00in /  0mm WeatherDisplay:10.37 W/m2 CLR
00:09 66.0 °F /  18.9 °C 62.6 °F /  17 °C 30.05in /  1017.5hPa East 1.2mph /  1.9km/h 1.2mph /  1.9km/h 89% 0.00in /  0mm WeatherDisplay:10.37 W/m2 CLR
00:14 65.8 °F /  18.8 °C 62.7 °F /  17.1 °C 30.05in /  1017.5hPa Calm     90% 0.00in /  0mm WeatherDisplay:10.37 W/m2 CLR
00:19 65.6 °F /  18.7 °C 62.5 °F /  16.9 °C 30.05in /  1017.5hPa Calm     90% 0.00in /  0mm WeatherDisplay:10.37 W/m2 CLR
00:24 65.4 °F /  18.6 °C 62.3 °F /  16.8 °C 30.05in /  1017.5hPa East 2.0mph /  3.2km/h   90% 0.00in /  0mm WeatherDisplay:10.37 W/m2 CLR
00:29 65.3 °F /  18.5 °C 62.3 °F /  16.8 °C 30.05in /  1017.5hPa East 3.5mph /  5.6km/h 3.5mph /  5.6km/h 90% 0.00in /  0mm WeatherDisplay:10.37 W/m2 CLR
00:34 65.3 °F /  18.5 °C 62.3 °F /  16.8 °C 30.05in /  1017.5hPa East 3.5mph /  5.6km/h 3.5mph /  5.6km/h 90% 0.00in /  0mm WeatherDisplay:10.37 W/m2 CLR
00:39 65.2 °F /  18.4 °C 62.2 °F /  16.8 °C 30.04in /  1017.2hPa East 2.3mph /  3.7km/h 2.3mph /  3.7km/h 90% 0.00in /  0mm WeatherDisplay:10.37 W/m2 CLR
00:44 65.1 °F /  18.4 °C 62.4 °F /  16.9 °C 30.04in /  1017.2hPa East 2.3mph /  3.7km/h 2.3mph /  3.7km/h 91% 0.00in /  0mm WeatherDisplay:10.37 W/m2 CLR
00:49 65.1 °F /  18.4 °C 62.4 °F /  16.9 °C 30.04in /  1017.2hPa East 2.3mph /  3.7km/h 2.3mph /  3.7km/h 91% 0.00in /  0mm WeatherDisplay:10.37 W/m2 CLR
00:54 65.1 °F /  18.4 °C 62.4 °F /  16.9 °C 30.04in /  1017.2hPa East 2.3mph /  3.7km/h 2.3mph /  3.7km/h 91% 0.00in /  0mm WeatherDisplay:10.37 W/m2 CLR
00:59 65.1 °F /  18.4 °C 62.4 °F /  16.9 °C 30.04in /  1017.2hPa East 3.5mph /  5.6km/h 3.5mph /  5.6km/h 91% 0.00in /  0mm WeatherDisplay:10.37 W/m2 CLR
01:04 65.1 °F /  18.4 °C 62.4 °F /  16.9 °C 30.05in /  1017.5hPa East 1.2mph /  1.9km/h 1.2mph /  1.9km/h 91% 0.00in /  0mm WeatherDisplay:10.37 W/m2 CLR
01:09 65.0 °F /  18.3 °C 62.3 °F /  16.8 °C 30.05in /  1017.5hPa East 2.3mph /  3.7km/h 2.3mph /  3.7km/h 91% 0.00in /  0mm WeatherDisplay:10.37 W/m2 CLR
01:14 65.1 °F /  18.4 °C 62.4 °F /  16.9 °C 30.04in /  1017.2hPa East 2.3mph /  3.7km/h 2.3mph /  3.7km/h 91% 0.00in /  0mm WeatherDisplay:10.37 W/m2 CLR
01:19 65.1 °F /  18.4 °C 62.1 °F /  16.7 °C 30.04in /  1017.2hPa East 1.2mph /  1.9km/h 1.2mph /  1.9km/h 90% 0.00in /  0mm WeatherDisplay:10.37 W/m2 CLR
01:25 65.1 °F /  18.4 °C 62.1 °F /  16.7 °C 30.04in /  1017.2hPa East 1.2mph /  1.9km/h 1.2mph /  1.9km/h 90% 0.00in /  0mm WeatherDisplay:10.37 W/m2 CLR
01:30 65.1 °F /  18.4 °C 62.1 °F /  16.7 °C 30.04in /  1017.2hPa East 1.2mph /  1.9km/h 1.2mph /  1.9km/h 90% 0.00in /  0mm WeatherDisplay:10.37 W/m2 CLR
01:35 65.0 °F /  18.3 °C 62.0 °F /  16.7 °C 30.04in /  1017.2hPa East 2.3mph /  3.7km/h 2.3mph /  3.7km/h 90% 0.00in /  0mm WeatherDisplay:10.37 W/m2 CLR
01:40 64.9 °F /  18.3 °C 61.9 °F /  16.6 °C 30.04in /  1017.2hPa East 2.3mph /  3.7km/h 2.3mph /  3.7km/h 90% 0.00in /  0mm WeatherDisplay:10.37 W/m2 CLR
01:45 64.8 °F /  18.2 °C 61.8 °F /  16.6 °C 30.05in /  1017.5hPa East 1.2mph /  1.9km/h 1.2mph /  1.9km/h 90% 0.00in /  0mm WeatherDisplay:10.37 W/m2 CLR
01:50 64.7 °F /  18.2 °C 61.7 °F /  16.5 °C 30.04in /  1017.2hPa East 2.3mph /  3.7km/h 2.3mph /  3.7km/h 90% 0.00in /  0mm WeatherDisplay:10.37 W/m2 CLR
01:55 64.7 °F /  18.2 °C 61.7 °F /  16.5 °C 30.04in /  1017.2hPa East 2.3mph /  3.7km/h 2.3mph /  3.7km/h 90% 0.00in /  0mm WeatherDisplay:10.37 W/m2 CLR
02:00 64.6 °F /  18.1 °C 61.6 °F /  16.4 °C 30.04in /  1017.2hPa East 2.3mph /  3.7km/h 2.3mph /  3.7km/h 90% 0.00in /  0mm WeatherDisplay:10.37 W/m2 CLR
02:05 64.5 °F /  18.1 °C 61.8 °F /  16.6 °C 30.04in /  1017.2hPa East 1.2mph /  1.9km/h 1.2mph /  1.9km/h 91% 0.00in /  0mm WeatherDisplay:10.37 W/m2 CLR
02:10 64.4 °F /  18 °C 61.7 °F /  16.5 °C 30.04in /  1017.2hPa East 1.2mph /  1.9km/h   91% 0.00in /  0mm WeatherDisplay:10.37 W/m2 CLR
02:15 64.4 °F /  18 °C 61.7 °F /  16.5 °C 30.04in /  1017.2hPa East 1.2mph /  1.9km/h 1.2mph /  1.9km/h 91% 0.00in /  0mm WeatherDisplay:10.37 W/m2 CLR
02:20 64.4 °F /  18 °C 61.7 °F /  16.5 °C 30.04in /  1017.2hPa Calm     91% 0.00in /  0mm WeatherDisplay:10.37 W/m2 CLR
02:25 64.3 °F /  17.9 °C 61.6 °F /  16.4 °C 30.04in /  1017.2hPa East 1.2mph /  1.9km/h 1.2mph /  1.9km/h 91% 0.00in /  0mm WeatherDisplay:10.37 W/m2 CLR
02:30 64.2 °F /  17.9 °C 61.5 °F /  16.4 °C 30.04in /  1017.2hPa East 1.2mph /  1.9km/h 1.2mph /  1.9km/h 91% 0.00in /  0mm WeatherDisplay:10.37 W/m2 CLR
02:35 64.1 °F /  17.8 °C 61.4 °F /  16.3 °C 30.04in /  1017.2hPa East 2.0mph /  3.2km/h 2.0mph /  3.2km/h 91% 0.00in /  0mm WeatherDisplay:10.37 W/m2 CLR
02:40 64.1 °F /  17.8 °C 61.4 °F /  16.3 °C 30.04in /  1017.2hPa East 1.2mph /  1.9km/h 1.2mph /  1.9km/h 91% 0.00in /  0mm WeatherDisplay:10.37 W/m2 CLR
02:45 64.0 °F /  17.8 °C 61.3 °F /  16.3 °C 30.04in /  1017.2hPa East 2.3mph /  3.7km/h 2.3mph /  3.7km/h 91% 0.00in /  0mm WeatherDisplay:10.37 W/m2 CLR
02:50 64.0 °F /  17.8 °C 61.3 °F /  16.3 °C 30.04in /  1017.2hPa East 1.2mph /  1.9km/h 1.2mph /  1.9km/h 91% 0.00in /  0mm WeatherDisplay:10.37 W/m2 CLR
02:55 63.9 °F /  17.7 °C 61.2 °F /  16.2 °C 30.04in /  1017.2hPa East 2.0mph /  3.2km/h 2.0mph /  3.2km/h 91% 0.00in /  0mm WeatherDisplay:10.37 W/m2 CLR
03:00 63.8 °F /  17.7 °C 61.1 °F /  16.2 °C 30.04in /  1017.2hPa East 1.2mph /  1.9km/h 1.2mph /  1.9km/h 91% 0.00in /  0mm WeatherDisplay:10.37 W/m2 CLR
03:05 63.7 °F /  17.6 °C 61.0 °F /  16.1 °C 30.04in /  1017.2hPa East 1.2mph /  1.9km/h 1.2mph /  1.9km/h 91% 0.00in /  0mm WeatherDisplay:10.37 W/m2 CLR
03:10 63.6 °F /  17.6 °C 60.9 °F /  16.1 °C 30.04in /  1017.2hPa East 1.2mph /  1.9km/h 1.2mph /  1.9km/h 91% 0.00in /  0mm WeatherDisplay:10.37 W/m2 CLR
03:15 63.6 °F /  17.6 °C 60.9 °F /  16.1 °C 30.04in /  1017.2hPa East 2.0mph /  3.2km/h 2.0mph /  3.2km/h 91% 0.00in /  0mm WeatherDisplay:10.37 W/m2 CLR
03:20 63.5 °F /  17.5 °C 60.8 °F /  16 °C 30.04in /  1017.2hPa East 3.5mph /  5.6km/h 3.5mph /  5.6km/h 91% 0.00in /  0mm WeatherDisplay:10.37 W/m2 CLR
03:25 63.5 °F /  17.5 °C 60.8 °F /  16 °C 30.04in /  1017.2hPa East 2.3mph /  3.7km/h 2.3mph /  3.7km/h 91% 0.00in /  0mm WeatherDisplay:10.37 W/m2 CLR
03:30 63.5 °F /  17.5 °C 60.8 °F /  16 °C 30.04in /  1017.2hPa East 1.2mph /  1.9km/h 1.2mph /  1.9km/h 91% 0.00in /  0mm WeatherDisplay:10.37 W/m2 CLR
03:35 63.5 °F /  17.5 °C 60.8 °F /  16 °C 30.04in /  1017.2hPa East 1.2mph /  1.9km/h 1.2mph /  1.9km/h 91% 0.00in /  0mm WeatherDisplay:10.37 W/m2 CLR
03:40 63.4 °F /  17.4 °C 60.7 °F /  15.9 °C 30.04in /  1017.2hPa East 1.2mph /  1.9km/h 1.2mph /  1.9km/h 91% 0.00in /  0mm WeatherDisplay:10.37 W/m2 CLR
03:45 63.2 °F /  17.3 °C 60.5 °F /  15.8 °C 30.04in /  1017.2hPa East 2.3mph /  3.7km/h 2.3mph /  3.7km/h 91% 0.00in /  0mm WeatherDisplay:10.37 W/m2 CLR
03:50 63.1 °F /  17.3 °C 60.4 °F /  15.8 °C 30.04in /  1017.2hPa East 1.2mph /  1.9km/h   91% 0.00in /  0mm WeatherDisplay:10.37 W/m2 CLR
03:55 63.0 °F /  17.2 °C 60.3 °F /  15.7 °C 30.04in /  1017.2hPa Calm     91% 0.00in /  0mm WeatherDisplay:10.37 W/m2 CLR
04:00 62.9 °F /  17.2 °C 60.2 °F /  15.7 °C 30.03in /  1016.8hPa Calm     91% 0.00in /  0mm WeatherDisplay:10.37 W/m2 CLR
04:05 62.7 °F /  17.1 °C 60.0 °F /  15.6 °C 30.03in /  1016.8hPa Calm     91% 0.00in /  0mm WeatherDisplay:10.37 W/m2 CLR
04:10 62.6 °F /  17 °C 59.9 °F /  15.5 °C 30.03in /  1016.8hPa East 1.2mph /  1.9km/h   91% 0.00in /  0mm WeatherDisplay:10.37 W/m2 CLR
04:15 62.4 °F /  16.9 °C 59.7 °F /  15.4 °C 30.03in /  1016.8hPa East 1.2mph /  1.9km/h   91% 0.00in /  0mm WeatherDisplay:10.37 W/m2 CLR
04:20 62.2 °F /  16.8 °C 59.5 °F /  15.3 °C 30.03in /  1016.8hPa Calm     91% 0.00in /  0mm WeatherDisplay:10.37 W/m2 CLR
04:25 62.0 °F /  16.7 °C 59.3 °F /  15.2 °C 30.03in /  1016.8hPa East 1.0mph /  1.6km/h   91% 0.00in /  0mm WeatherDisplay:10.37 W/m2 CLR
04:30 61.8 °F /  16.6 °C 59.1 °F /  15.1 °C 30.03in /  1016.8hPa Calm     91% 0.00in /  0mm WeatherDisplay:10.37 W/m2 CLR
04:35 61.6 °F /  16.4 °C 58.9 °F /  14.9 °C 30.03in /  1016.8hPa Calm     91% 0.00in /  0mm WeatherDisplay:10.37 W/m2 CLR
04:40 61.5 °F /  16.4 °C 58.8 °F /  14.9 °C 30.03in /  1016.8hPa East 1.2mph /  1.9km/h   91% 0.00in /  0mm WeatherDisplay:10.37 W/m2 CLR
04:45 61.4 °F /  16.3 °C 58.7 °F /  14.8 °C 30.03in /  1016.8hPa East 1.2mph /  1.9km/h   91% 0.00in /  0mm WeatherDisplay:10.37 W/m2 CLR
04:50 61.3 °F /  16.3 °C 58.6 °F /  14.8 °C 30.03in /  1016.8hPa Calm     91% 0.00in /  0mm WeatherDisplay:10.37 W/m2 CLR
04:55 61.3 °F /  16.3 °C 58.9 °F /  14.9 °C 30.03in /  1016.8hPa East 1.0mph /  1.6km/h   92% 0.00in /  0mm WeatherDisplay:10.37 W/m2 CLR
05:00 61.3 °F /  16.3 °C 58.9 °F /  14.9 °C 30.03in /  1016.8hPa East 1.2mph /  1.9km/h   92% 0.00in /  0mm WeatherDisplay:10.37 W/m2 CLR
05:05 61.3 °F /  16.3 °C 58.9 °F /  14.9 °C 30.03in /  1016.8hPa East 1.2mph /  1.9km/h 1.2mph /  1.9km/h 92% 0.00in /  0mm WeatherDisplay:10.37 W/m2 CLR
05:10 61.5 °F /  16.4 °C 59.1 °F /  15.1 °C 30.03in /  1016.8hPa East 1.2mph /  1.9km/h 1.2mph /  1.9km/h 92% 0.00in /  0mm WeatherDisplay:10.37 W/m2 CLR
05:15 61.5 °F /  16.4 °C 59.1 °F /  15.1 °C 30.03in /  1016.8hPa East 1.2mph /  1.9km/h 1.2mph /  1.9km/h 92% 0.00in /  0mm WeatherDisplay:10.37 W/m2 CLR
05:20 61.6 °F /  16.4 °C 59.2 °F /  15.1 °C 30.03in /  1016.8hPa Calm     92% 0.00in /  0mm WeatherDisplay:10.37 W/m2 CLR
05:25 61.5 °F /  16.4 °C 59.1 °F /  15.1 °C 30.03in /  1016.8hPa Calm     92% 0.00in /  0mm WeatherDisplay:10.37 W/m2 CLR
05:30 61.4 °F /  16.3 °C 59.0 °F /  15 °C 30.03in /  1016.8hPa Calm     92% 0.00in /  0mm WeatherDisplay:10.37 W/m2 CLR
05:35 61.2 °F /  16.2 °C 58.8 °F /  14.9 °C 30.04in /  1017.2hPa Calm     92% 0.00in /  0mm WeatherDisplay:10.37 W/m2 CLR
05:40 61.1 °F /  16.2 °C 58.7 °F /  14.8 °C 30.04in /  1017.2hPa Calm     92% 0.00in /  0mm WeatherDisplay:10.37 W/m2 CLR
05:45 60.9 °F /  16.1 °C 58.5 °F /  14.7 °C 30.04in /  1017.2hPa East 1.2mph /  1.9km/h 1.2mph /  1.9km/h 92% 0.00in /  0mm WeatherDisplay:10.37 W/m2 CLR
05:50 60.8 °F /  16 °C 58.4 °F /  14.7 °C 30.04in /  1017.2hPa Calm     92% 0.00in /  0mm WeatherDisplay:10.37 W/m2 CLR
05:55 60.8 °F /  16 °C 58.4 °F /  14.7 °C 30.04in /  1017.2hPa East 1.2mph /  1.9km/h 1.2mph /  1.9km/h 92% 0.00in /  0mm WeatherDisplay:10.37 W/m2 CLR
06:00 60.8 °F /  16 °C 58.4 °F /  14.7 °C 30.04in /  1017.2hPa East 1.2mph /  1.9km/h 1.2mph /  1.9km/h 92% 0.00in /  0mm WeatherDisplay:10.37 W/m2 CLR
06:05 60.8 °F /  16 °C 58.4 °F /  14.7 °C 30.04in /  1017.2hPa East 2.3mph /  3.7km/h 2.3mph /  3.7km/h 92% 0.00in /  0mm WeatherDisplay:10.37 W/m2 CLR
06:10 60.9 °F /  16.1 °C 58.5 °F /  14.7 °C 30.05in /  1017.5hPa East 2.3mph /  3.7km/h 2.3mph /  3.7km/h 92% 0.00in /  0mm WeatherDisplay:10.37 W/m2
06:15 60.9 °F /  16.1 °C 58.5 °F /  14.7 °C 30.05in /  1017.5hPa East 2.3mph /  3.7km/h 2.3mph /  3.7km/h 92% 0.00in /  0mm WeatherDisplay:10.37 W/m2
06:20 61.0 °F /  16.1 °C 58.6 °F /  14.8 °C 30.05in /  1017.5hPa East 2.3mph /  3.7km/h 2.3mph /  3.7km/h 92% 0.00in /  0mm WeatherDisplay:10.37 W/m2
06:25 61.0 °F /  16.1 °C 58.6 °F /  14.8 °C 30.05in /  1017.5hPa East 3.5mph /  5.6km/h 3.5mph /  5.6km/h 92% 0.00in /  0mm WeatherDisplay:10.37 W/m2 CLR
06:30 61.0 °F /  16.1 °C 58.6 °F /  14.8 °C 30.05in /  1017.5hPa East 3.5mph /  5.6km/h 3.5mph /  5.6km/h 92% 0.00in /  0mm WeatherDisplay:10.37 W/m2 CLR
06:31 60.9 °F /  16.1 °C 58.5 °F /  14.7 °C 30.05in /  1017.5hPa East 3.5mph /  5.6km/h 3.5mph /  5.6km/h 92% 0.00in /  0mm WeatherDisplay:10.37 W/m2 CLR
06:36 60.9 °F /  16.1 °C 58.5 °F /  14.7 °C 30.06in /  1017.8hPa East 2.3mph /  3.7km/h 2.3mph /  3.7km/h 92% 0.00in /  0mm WeatherDisplay:10.37 W/m2 CLR
06:41 60.9 °F /  16.1 °C 58.5 °F /  14.7 °C 30.06in /  1017.8hPa East 2.3mph /  3.7km/h 2.3mph /  3.7km/h 92% 0.00in /  0mm WeatherDisplay:10.37 W/m2 CLR
06:46 61.0 °F /  16.1 °C 58.6 °F /  14.8 °C 30.06in /  1017.8hPa East 3.5mph /  5.6km/h 3.5mph /  5.6km/h 92% 0.00in /  0mm WeatherDisplay:10.37 W/m2 SCT
06:51 60.9 °F /  16.1 °C 58.5 °F /  14.7 °C 30.06in /  1017.8hPa East 2.3mph /  3.7km/h 2.3mph /  3.7km/h 92% 0.00in /  0mm WeatherDisplay:10.37 W/m2 SCT
06:56 60.9 °F /  16.1 °C 58.5 °F /  14.7 °C 30.06in /  1017.8hPa East 2.3mph /  3.7km/h 2.3mph /  3.7km/h 92% 0.00in /  0mm WeatherDisplay:10.37 W/m2 SCT
07:01 60.9 °F /  16.1 °C 58.5 °F /  14.7 °C 30.06in /  1017.8hPa East 2.3mph /  3.7km/h 2.3mph /  3.7km/h 92% 0.00in /  0mm WeatherDisplay:10.37 W/m2 SCT
07:06 60.9 °F /  16.1 °C 58.5 °F /  14.7 °C 30.06in /  1017.8hPa East 2.3mph /  3.7km/h 2.3mph /  3.7km/h 92% 0.00in /  0mm WeatherDisplay:10.37 W/m2 SCT
07:11 60.8 °F /  16 °C 58.4 °F /  14.7 °C 30.07in /  1018.2hPa Calm     92% 0.00in /  0mm WeatherDisplay:10.37 W/m2 SCT
07:16 60.6 °F /  15.9 °C 58.2 °F /  14.6 °C 30.07in /  1018.2hPa Calm     92% 0.00in /  0mm WeatherDisplay:10.37 W/m2 SCT
07:21 60.4 °F /  15.8 °C 58.0 °F /  14.4 °C 30.07in /  1018.2hPa Calm     92% 0.00in /  0mm WeatherDisplay:10.37 W/m2 SCT
07:26 60.4 °F /  15.8 °C 58.0 °F /  14.4 °C 30.07in /  1018.2hPa Calm     92% 0.00in /  0mm WeatherDisplay:10.37 W/m2 OVC
07:31 60.3 °F /  15.7 °C 57.9 °F /  14.4 °C 30.07in /  1018.2hPa Calm     92% 0.00in /  0mm WeatherDisplay:10.37 W/m2 OVC
07:36 60.3 °F /  15.7 °C 57.9 °F /  14.4 °C 30.07in /  1018.2hPa Calm     92% 0.00in /  0mm WeatherDisplay:10.37 W/m2 OVC
07:41 60.4 °F /  15.8 °C 58.0 °F /  14.4 °C 30.07in /  1018.2hPa Calm     92% 0.00in /  0mm WeatherDisplay:10.37 W/m2 OVC
07:46 60.6 °F /  15.9 °C 58.2 °F /  14.6 °C 30.07in /  1018.2hPa Calm     92% 0.00in /  0mm WeatherDisplay:10.37 W/m2 OVC
07:51 60.8 °F /  16 °C 58.4 °F /  14.7 °C 30.07in /  1018.2hPa Calm     92% 0.00in /  0mm WeatherDisplay:10.37 W/m2 OVC
07:56 60.9 °F /  16.1 °C 58.5 °F /  14.7 °C 30.06in /  1017.8hPa Calm     92% 0.00in /  0mm WeatherDisplay:10.37 W/m2 OVC
08:01 61.0 °F /  16.1 °C 58.6 °F /  14.8 °C 30.06in /  1017.8hPa Calm     92% 0.00in /  0mm WeatherDisplay:10.37 W/m2 OVC
08:06 61.2 °F /  16.2 °C 58.8 °F /  14.9 °C 30.07in /  1018.2hPa Calm     92% 0.00in /  0mm WeatherDisplay:10.37 W/m2 OVC
08:11 61.4 °F /  16.3 °C 59.0 °F /  15 °C 30.07in /  1018.2hPa Calm     92% 0.00in /  0mm WeatherDisplay:10.37 W/m2 OVC
08:16 61.7 °F /  16.5 °C 59.3 °F /  15.2 °C 30.07in /  1018.2hPa Calm     92% 0.00in /  0mm WeatherDisplay:10.37 W/m2 OVC
08:21 62.1 °F /  16.7 °C 59.7 °F /  15.4 °C 30.07in /  1018.2hPa Calm     92% 0.00in /  0mm WeatherDisplay:10.37 W/m2 OVC
08:26 62.6 °F /  17 °C 60.2 °F /  15.7 °C 30.07in /  1018.2hPa Calm     92% 0.00in /  0mm WeatherDisplay:10.37 W/m2 OVC
08:31 63.0 °F /  17.2 °C 60.3 °F /  15.7 °C 30.07in /  1018.2hPa Calm     91% 0.00in /  0mm WeatherDisplay:10.37 W/m2 OVC
08:36 63.4 °F /  17.4 °C 60.7 °F /  15.9 °C 30.07in /  1018.2hPa East 3.5mph /  5.6km/h 3.5mph /  5.6km/h 91% 0.00in /  0mm WeatherDisplay:10.37 W/m2 OVC
08:41 63.9 °F /  17.7 °C 61.2 °F /  16.2 °C 30.07in /  1018.2hPa East 3.5mph /  5.6km/h 3.5mph /  5.6km/h 91% 0.00in /  0mm WeatherDisplay:10.37 W/m2 OVC
08:46 64.6 °F /  18.1 °C 61.9 °F /  16.6 °C 30.07in /  1018.2hPa East 3.5mph /  5.6km/h 3.5mph /  5.6km/h 91% 0.00in /  0mm WeatherDisplay:10.37 W/m2 SCT
08:51 65.2 °F /  18.4 °C 62.2 °F /  16.8 °C 30.07in /  1018.2hPa East 3.0mph /  4.8km/h 3.0mph /  4.8km/h 90% 0.00in /  0mm WeatherDisplay:10.37 W/m2 SCT
08:56 65.9 °F /  18.8 °C 62.5 °F /  16.9 °C 30.07in /  1018.2hPa East 2.3mph /  3.7km/h 2.3mph /  3.7km/h 89% 0.00in /  0mm WeatherDisplay:10.37 W/m2 SCT
09:01 66.5 °F /  19.2 °C 63.1 °F /  17.3 °C 30.07in /  1018.2hPa East 3.5mph /  5.6km/h 3.5mph /  5.6km/h 89% 0.00in /  0mm WeatherDisplay:10.37 W/m2 SCT
09:06 67.1 °F /  19.5 °C 63.4 °F /  17.4 °C 30.07in /  1018.2hPa East 3.5mph /  5.6km/h 3.5mph /  5.6km/h 88% 0.00in /  0mm WeatherDisplay:10.37 W/m2 CLR
09:11 67.7 °F /  19.8 °C 64.0 °F /  17.8 °C 30.07in /  1018.2hPa East 3.5mph /  5.6km/h 3.5mph /  5.6km/h 88% 0.00in /  0mm WeatherDisplay:10.37 W/m2 CLR
09:16 68.3 °F /  20.2 °C 64.2 °F /  17.9 °C 30.07in /  1018.2hPa East 3.5mph /  5.6km/h 3.5mph /  5.6km/h 87% 0.00in /  0mm WeatherDisplay:10.37 W/m2 CLR
09:21 68.9 °F /  20.5 °C 64.5 °F /  18.1 °C 30.07in /  1018.2hPa East 3.5mph /  5.6km/h 3.5mph /  5.6km/h 86% 0.00in /  0mm WeatherDisplay:10.37 W/m2 CLR
09:26 69.6 °F /  20.9 °C 64.8 °F /  18.2 °C 30.07in /  1018.2hPa East 3.5mph /  5.6km/h 3.5mph /  5.6km/h 85% 0.00in /  0mm WeatherDisplay:10.37 W/m2 CLR
09:31 70.1 °F /  21.2 °C 65.3 °F /  18.5 °C 30.08in /  1018.5hPa East 3.5mph /  5.6km/h 3.5mph /  5.6km/h 85% 0.00in /  0mm WeatherDisplay:10.37 W/m2 CLR
09:36 70.7 °F /  21.5 °C 65.6 °F /  18.7 °C 30.08in /  1018.5hPa East 3.5mph /  5.6km/h 3.5mph /  5.6km/h 84% 0.00in /  0mm WeatherDisplay:10.37 W/m2 CLR
09:41 71.4 °F /  21.9 °C 65.9 °F /  18.8 °C 30.08in /  1018.5hPa ENE 3.5mph /  5.6km/h 3.5mph /  5.6km/h 83% 0.00in /  0mm WeatherDisplay:10.37 W/m2 CLR
09:46 71.7 °F /  22.1 °C 66.2 °F /  19 °C 30.08in /  1018.5hPa NE 3.5mph /  5.6km/h 3.5mph /  5.6km/h 83% 0.00in /  0mm WeatherDisplay:10.37 W/m2 CLR
09:51 72.1 °F /  22.3 °C 66.3 °F /  19.1 °C 30.08in /  1018.5hPa NE 3.5mph /  5.6km/h 3.5mph /  5.6km/h 82% 0.00in /  0mm WeatherDisplay:10.37 W/m2 CLR
09:56 73.1 °F /  22.8 °C 66.9 °F /  19.4 °C 30.08in /  1018.5hPa NE 5.0mph /  8km/h 5.0mph /  8km/h 81% 0.00in /  0mm WeatherDisplay:10.37 W/m2 CLR
10:01 73.8 °F /  23.2 °C 66.8 °F /  19.3 °C 30.08in /  1018.5hPa East 4.6mph /  7.4km/h 4.6mph /  7.4km/h 79% 0.00in /  0mm WeatherDisplay:10.37 W/m2 CLR
10:06 74.4 °F /  23.6 °C 67.1 °F /  19.5 °C 30.08in /  1018.5hPa East 4.0mph /  6.4km/h 4.0mph /  6.4km/h 78% 0.00in /  0mm WeatherDisplay:10.37 W/m2 CLR
10:11 75.0 °F /  23.9 °C 67.3 °F /  19.6 °C 30.08in /  1018.5hPa ESE 4.0mph /  6.4km/h 4.0mph /  6.4km/h 77% 0.00in /  0mm WeatherDisplay:10.37 W/m2 CLR
10:16 75.6 °F /  24.2 °C 67.5 °F /  19.7 °C 30.08in /  1018.5hPa NNE 5.8mph /  9.3km/h 5.8mph /  9.3km/h 76% 0.00in /  0mm WeatherDisplay:10.37 W/m2 CLR
10:21 76.1 °F /  24.5 °C 67.6 °F /  19.8 °C 30.08in /  1018.5hPa ENE 5.0mph /  8km/h 5.0mph /  8km/h 75% 0.00in /  0mm WeatherDisplay:10.37 W/m2 CLR
10:26 76.4 °F /  24.7 °C 67.5 °F /  19.7 °C 30.08in /  1018.5hPa East 6.0mph /  9.7km/h 6.0mph /  9.7km/h 74% 0.00in /  0mm WeatherDisplay:10.37 W/m2 CLR
10:31 76.9 °F /  24.9 °C 67.5 °F /  19.7 °C 30.08in /  1018.5hPa NE 5.8mph /  9.3km/h 5.8mph /  9.3km/h 73% 0.00in /  0mm WeatherDisplay:10.37 W/m2 CLR
10:36 77.1 °F /  25.1 °C 67.3 °F /  19.6 °C 30.08in /  1018.5hPa SE 8.1mph /  13km/h 8.1mph /  13km/h 72% 0.00in /  0mm WeatherDisplay:10.37 W/m2 CLR
10:41 78.0 °F /  25.6 °C 67.8 °F /  19.9 °C 30.08in /  1018.5hPa ESE 4.0mph /  6.4km/h 4.0mph /  6.4km/h 71% 0.00in /  0mm WeatherDisplay:10.37 W/m2 CLR
10:46 78.9 °F /  26.1 °C 67.8 °F /  19.9 °C 30.08in /  1018.5hPa ESE 3.5mph /  5.6km/h 3.5mph /  5.6km/h 69% 0.00in /  0mm WeatherDisplay:10.37 W/m2 CLR
10:51 79.5 °F /  26.4 °C 68.0 °F /  20 °C 30.08in /  1018.5hPa ENE 3.5mph /  5.6km/h 3.5mph /  5.6km/h 68% 0.00in /  0mm WeatherDisplay:10.37 W/m2 CLR
10:56 79.8 °F /  26.6 °C 67.8 °F /  19.9 °C 30.08in /  1018.5hPa NNE 7.0mph /  11.3km/h 7.0mph /  11.3km/h 67% 0.00in /  0mm WeatherDisplay:10.37 W/m2 CLR
11:01 79.4 °F /  26.3 °C 67.4 °F /  19.7 °C 30.08in /  1018.5hPa NNE 6.9mph /  11.1km/h 6.9mph /  11.1km/h 67% 0.00in /  0mm WeatherDisplay:10.37 W/m2 CLR
11:06 79.3 °F /  26.3 °C 67.4 °F /  19.7 °C 30.08in /  1018.5hPa NNE 3.5mph /  5.6km/h 3.5mph /  5.6km/h 67% 0.00in /  0mm WeatherDisplay:10.37 W/m2 CLR
11:11 79.6 °F /  26.4 °C 67.6 °F /  19.8 °C 30.08in /  1018.5hPa NNE 3.5mph /  5.6km/h 3.5mph /  5.6km/h 67% 0.00in /  0mm WeatherDisplay:10.37 W/m2 CLR
11:16 79.9 °F /  26.6 °C 67.5 °F /  19.7 °C 30.08in /  1018.5hPa NE 3.5mph /  5.6km/h 3.5mph /  5.6km/h 66% 0.00in /  0mm WeatherDisplay:10.37 W/m2 CLR
11:21 80.4 °F /  26.9 °C 68.0 °F /  20 °C 30.08in /  1018.5hPa NE 2.3mph /  3.7km/h 2.3mph /  3.7km/h 66% 0.00in /  0mm WeatherDisplay:10.37 W/m2 CLR
11:26 81.4 °F /  27.4 °C 68.0 °F /  20 °C 30.08in /  1018.5hPa NE 3.0mph /  4.8km/h 3.0mph /  4.8km/h 64% 0.00in /  0mm WeatherDisplay:10.37 W/m2 CLR
11:31 81.4 °F /  27.4 °C 67.6 °F /  19.8 °C 30.08in /  1018.5hPa NW 3.5mph /  5.6km/h 3.5mph /  5.6km/h 63% 0.00in /  0mm WeatherDisplay:10.37 W/m2 CLR
11:36 81.1 °F /  27.3 °C 67.3 °F /  19.6 °C 30.08in /  1018.5hPa NW 3.5mph /  5.6km/h 3.5mph /  5.6km/h 63% 0.00in /  0mm WeatherDisplay:10.37 W/m2 CLR
11:41 81.0 °F /  27.2 °C 67.2 °F /  19.6 °C 30.07in /  1018.2hPa West 4.0mph /  6.4km/h 4.0mph /  6.4km/h 63% 0.00in /  0mm WeatherDisplay:10.37 W/m2 CLR
11:46 81.1 °F /  27.3 °C 67.3 °F /  19.6 °C 30.07in /  1018.2hPa North 6.9mph /  11.1km/h 6.9mph /  11.1km/h 63% 0.00in /  0mm WeatherDisplay:10.37 W/m2 CLR
11:51 81.5 °F /  27.5 °C 67.2 °F /  19.6 °C 30.07in /  1018.2hPa ENE 3.5mph /  5.6km/h 3.5mph /  5.6km/h 62% 0.00in /  0mm WeatherDisplay:10.37 W/m2 CLR
11:56 82.4 °F /  28 °C 67.1 °F /  19.5 °C 30.07in /  1018.2hPa SSE 3.5mph /  5.6km/h 3.5mph /  5.6km/h 60% 0.00in /  0mm WeatherDisplay:10.37 W/m2 CLR
12:01 83.0 °F /  28.3 °C 67.6 °F /  19.8 °C 30.07in /  1018.2hPa NNE 3.5mph /  5.6km/h 3.5mph /  5.6km/h 60% 0.00in /  0mm WeatherDisplay:10.37 W/m2 CLR
12:06 82.9 °F /  28.3 °C 67.1 °F /  19.5 °C 30.06in /  1017.8hPa NNE 4.6mph /  7.4km/h 4.6mph /  7.4km/h 59% 0.00in /  0mm WeatherDisplay:10.37 W/m2 CLR
12:11 83.1 °F /  28.4 °C 66.8 °F /  19.3 °C 30.06in /  1017.8hPa NNW 4.6mph /  7.4km/h 4.6mph /  7.4km/h 58% 0.00in /  0mm WeatherDisplay:10.37 W/m2 CLR
12:16 82.1 °F /  27.8 °C 66.8 °F /  19.3 °C 30.06in /  1017.8hPa NE 4.6mph /  7.4km/h 4.6mph /  7.4km/h 60% 0.00in /  0mm WeatherDisplay:10.37 W/m2 CLR
12:18 81.9 °F /  27.7 °C 66.6 °F /  19.2 °C 30.06in /  1017.8hPa NNE 5.0mph /  8km/h 5.0mph /  8km/h 60% 0.00in /  0mm WeatherDisplay:10.37 W/m2 CLR
12:23 81.7 °F /  27.6 °C 66.4 °F /  19.1 °C 30.06in /  1017.8hPa East 3.5mph /  5.6km/h 3.5mph /  5.6km/h 60% 0.00in /  0mm WeatherDisplay:10.37 W/m2 CLR
Smyth Weather
Compliments of Weather Underground - 2.25 mb